Skip Navigation LinksHome page > Weather > Current weather Skip Navigation Links

Current Weather

New Tokyo International (Narita), Tokyo

For information only: do not use for flight planning or navigation.
Latest weather
Observation time Friday, May 14, 2021 10:00 PM JST
Local time Friday, May 14, 2021 10:37 PM JST
Flight conditions Low Instrument Meteorological Conditions
Winds
Wind direction South-Southwest (200°)
Wind speed 3 mph
Visibility 6.2 mi.
Sky condition
Ceiling 0 ft. broken clouds
Cloud layer broken clouds 0 ft.
Cloud layer few clouds 3,000 ft.
Temperature 63°F
Dewpoint 59°F
Altimeter 29.97 in.Hg
Derived measurements
Relative humidity 88%
Density altitude 556 ft.
Remarks
No significant changes expected in the next two hours.
METAR RJAA 141300Z 20003KT 9999 FEW030 BKN/// 17/15 Q1015 NOSIG RMK 1CU030 A3000

Settings

Location code

InnerDrive.Weather 4.0.6770.0 Release CLR 4.0.30319.42000
Copyright ©2018 Inner Drive Technology. All rights reserved. Portions Copyright ©1986-2018 David Braverman.

Find weather

Site navigation


Skip Navigation Links

Place info

Page info

PayPal - The safer, easier way to pay online!

Return home.

Copyright ©2021 Inner Drive Technology. Purveyors of fine, hand-crafted computer software. Page printed 2021-05-14T13:37:34 UTC.